Portada
METAR-TAF:

METAR-TAF

Aeroports :

Aeroport de Copenhaguen

Copenhaguen, Dinamarca

latitud: 55-37N, longitud: 012-39E, altitud: 5 m

Observació

L'informe es va fer fa 24 minuts, a les 04:50 UTC
Vent 8 kt del Oest/Nord-Oest, variant entre Oest i Nord-Oest
Temperatura 13°C
Humitat 82%
Pressió 1020 hPa
Visibilitat 10 km o més
Cel cobert a una alçada de 1200 ft

METAR: EKCH 210450Z 29008KT 260V320 9999 OVC012 13/10 Q1020 NOSIG

Hora: 07:14 (05:14 UTC)

Pronòstic

L'informe es va fer fa 5 hores i 57 minuts, a les 23:17 UTC
Pronòstic vàlid del 21 a les 00 UTC al 21 a les 24 UTC
Vent 8 kt del Oest
Visibilitat: 9000 m
Cel ennuvolat a una alçada de 1800 ft
Temporalment
l' 21 a les 00 UTC al 21 a les 03 UTC
Cel ennuvolat a una alçada de 1200 ft
Temporalment
l' 21 a les 03 UTC al 21 a les 09 UTC
Cel ennuvolat a una alçada de 800 ft

TAF: EKCH 202317Z 2100/2124 27008KT 9000 BKN018 TEMPO 2100/2103 BKN012 TEMPO 2103/2109 BKN008

Observacions i pronòstics meteorològics de més de 4000 aeroports (METAR i TAF).

Les estacions disponibles són els punts grocs i vermells al mapa.

Posi el ratolí al punt desitjat per veure el nom de l'estació.

Feu clic per veure les observacions i els pronòstics meteorològics.

Per canviar el mapa: feu clic els botons verds amb una creu de color negre per apropar; al botó verd amb un guió per allunyar la imatge; o en les fletxes verdes per a mapes adjacents.


METAR-TAF: